createdAt,value
2019-06-08T00:00:24.661Z,5.08
2019-06-08T00:02:57.188Z,3.85
2019-06-08T00:05:29.507Z,4.25
2019-06-08T00:08:01.892Z,4.25
2019-06-08T00:10:33.989Z,4.65
2019-06-08T00:13:06.581Z,4.30
2019-06-08T00:15:38.620Z,4.47
2019-06-08T00:18:11.080Z,4.05
2019-06-08T00:20:43.260Z,5.20
2019-06-08T00:23:15.770Z,4.70
2019-06-08T00:25:48.095Z,4.53
2019-06-08T00:28:20.553Z,4.75
2019-06-08T00:30:52.921Z,5.45
2019-06-08T00:33:25.482Z,5.05
2019-06-08T00:35:58.870Z,5.70
2019-06-08T00:38:32.492Z,6.35
2019-06-08T00:41:05.165Z,6.90
2019-06-08T00:43:37.540Z,6.47
2019-06-08T00:46:09.789Z,6.10
2019-06-08T00:48:42.148Z,7.12
2019-06-08T00:51:14.487Z,8.28
2019-06-08T00:53:46.803Z,8.78
2019-06-08T00:56:19.487Z,8.40
2019-06-08T00:58:51.905Z,11.55
2019-06-08T01:01:26.359Z,12.95
2019-06-08T01:03:58.577Z,12.93
2019-06-08T01:06:30.886Z,11.68
2019-06-08T01:09:03.608Z,11.53
2019-06-08T01:11:36.651Z,13.28
2019-06-08T01:14:09.196Z,14.05
2019-06-08T01:16:41.551Z,11.75
2019-06-08T01:19:13.926Z,14.15
2019-06-08T01:21:46.375Z,15.50
2019-06-08T01:24:19.657Z,8.63
2019-06-08T01:26:52.085Z,9.33
2019-06-08T01:29:24.552Z,8.53
2019-06-08T01:31:57.066Z,12.47
2019-06-08T01:34:30.891Z,15.23
2019-06-08T01:37:03.473Z,17.32
2019-06-08T01:39:39.647Z,15.60
2019-06-08T01:42:18.105Z,14.35
2019-06-08T01:44:51.503Z,12.33
2019-06-08T01:47:24.625Z,11.28
2019-06-08T01:49:57.070Z,11.60
2019-06-08T01:52:30.851Z,11.35
2019-06-08T01:55:03.188Z,12.13
2019-06-08T01:57:35.911Z,11.90
2019-06-08T02:02:43.776Z,11.75
2019-06-08T02:05:16.529Z,11.38
2019-06-08T02:07:48.817Z,11.80
2019-06-08T02:10:22.212Z,12.03
2019-06-08T02:12:54.800Z,11.95
2019-06-08T02:15:27.264Z,12.33
2019-06-08T02:17:59.513Z,11.80
2019-06-08T02:20:33.004Z,11.73
2019-06-08T02:23:05.625Z,11.55
2019-06-08T02:25:37.812Z,11.18
2019-06-08T02:28:10.202Z,10.55
2019-06-08T02:30:42.789Z,9.65
2019-06-08T02:33:15.286Z,10.05
2019-06-08T02:35:48.057Z,9.98
2019-06-08T02:38:20.776Z,10.75
2019-06-08T02:40:55.704Z,10.40
2019-06-08T02:43:29.005Z,10.53
2019-06-08T02:46:01.481Z,10.13
2019-06-08T02:48:35.624Z,9.80
2019-06-08T02:53:41.430Z,10.00
2019-06-08T02:56:15.272Z,9.23
2019-06-08T02:58:49.716Z,9.53
2019-06-08T03:01:22.647Z,9.75
2019-06-08T03:03:56.389Z,7.20
2019-06-08T03:06:32.373Z,10.03
2019-06-08T03:09:05.873Z,10.85
2019-06-08T03:11:39.208Z,9.73
2019-06-08T03:14:12.467Z,10.70
2019-06-08T03:16:45.713Z,8.93
2019-06-08T03:19:22.404Z,10.90
2019-06-08T03:21:53.446Z,10.85
2019-06-08T03:24:26.995Z,11.53
2019-06-08T03:26:59.505Z,8.33
2019-06-08T03:29:34.946Z,7.33
2019-06-08T03:32:08.088Z,6.90
2019-06-08T03:34:51.153Z,7.35
2019-06-08T03:37:15.149Z,6.50
2019-06-08T03:39:47.676Z,6.25
2019-06-08T03:42:21.067Z,5.08
2019-06-08T03:47:25.578Z,4.53
2019-06-08T03:49:58.813Z,3.60
2019-06-08T03:52:31.318Z,3.90
2019-06-08T03:55:04.296Z,4.20
2019-06-08T03:57:38.239Z,4.08
2019-06-08T04:00:13.351Z,4.03
2019-06-08T04:02:46.782Z,3.90
2019-06-08T04:05:19.019Z,3.50
2019-06-08T04:07:51.318Z,4.25
2019-06-08T04:10:23.894Z,3.85
2019-06-08T04:12:56.095Z,4.67
2019-06-08T04:15:29.487Z,4.70
2019-06-08T04:18:02.670Z,3.60
2019-06-08T04:20:34.970Z,3.55
2019-06-08T04:23:07.422Z,3.65
2019-06-08T04:25:41.011Z,3.62
2019-06-08T04:28:14.222Z,3.77
2019-06-08T04:30:49.834Z,4.45
2019-06-08T04:33:26.337Z,6.03
2019-06-08T04:35:59.022Z,5.33
2019-06-08T04:38:33.474Z,5.45
2019-06-08T04:41:05.624Z,5.95
2019-06-08T04:43:45.448Z,5.97
2019-06-08T04:46:18.716Z,5.40
2019-06-08T04:48:52.496Z,5.42
2019-06-08T04:51:24.772Z,4.53
2019-06-08T04:53:58.476Z,4.05
2019-06-08T04:56:32.014Z,4.12
2019-06-08T04:59:06.632Z,4.83
2019-06-08T05:01:40.821Z,4.08
2019-06-08T05:06:45.257Z,3.92
2019-06-08T05:09:17.670Z,4.33
2019-06-08T05:11:50.047Z,4.53
2019-06-08T05:14:22.617Z,3.60
2019-06-08T05:16:54.541Z,4.58
2019-06-08T05:19:27.063Z,5.10
2019-06-08T05:22:00.486Z,4.70
2019-06-08T05:24:33.091Z,4.65
2019-06-08T05:27:06.277Z,4.33
2019-06-08T05:29:43.291Z,4.08
2019-06-08T05:32:16.081Z,4.67
2019-06-08T05:34:49.714Z,4.12
2019-06-08T05:37:21.795Z,5.00
2019-06-08T05:39:55.276Z,4.92
2019-06-08T05:42:28.426Z,5.25
2019-06-08T05:45:08.331Z,4.42
2019-06-08T05:47:41.794Z,4.53
2019-06-08T05:50:17.607Z,4.15
2019-06-08T05:52:50.307Z,4.62
2019-06-08T05:55:22.922Z,4.47
2019-06-08T05:57:56.728Z,4.40
2019-06-08T06:00:29.212Z,4.05
2019-06-08T06:03:01.734Z,3.77
2019-06-08T06:05:33.961Z,3.92
2019-06-08T06:08:18.433Z,3.77
2019-06-08T06:10:42.873Z,4.28
2019-06-08T06:13:15.404Z,3.73
2019-06-08T06:15:49.021Z,3.72
2019-06-08T06:18:22.220Z,3.47
2019-06-08T06:21:09.805Z,3.22
2019-06-08T06:23:28.382Z,3.52
2019-06-08T06:26:02.202Z,3.30
2019-06-08T06:28:34.499Z,3.40
2019-06-08T06:31:07.573Z,3.00
2019-06-08T06:33:39.920Z,2.80
2019-06-08T06:36:12.294Z,3.08
2019-06-08T06:38:45.833Z,2.58
2019-06-08T06:41:18.677Z,2.83
2019-06-08T06:43:51.930Z,2.52
2019-06-08T06:46:26.028Z,2.50
2019-06-08T06:48:58.259Z,2.58
2019-06-08T06:54:05.481Z,2.90
2019-06-08T06:56:37.676Z,2.90
2019-06-08T06:59:09.806Z,2.85
2019-06-08T07:01:41.892Z,2.27
2019-06-08T07:04:14.013Z,2.87
2019-06-08T07:06:46.257Z,2.72
2019-06-08T07:09:18.540Z,2.47
2019-06-08T07:11:50.989Z,2.30
2019-06-08T07:14:23.224Z,1.92
2019-06-08T07:16:56.142Z,3.33
2019-06-08T07:19:28.740Z,2.90
2019-06-08T07:22:03.596Z,2.77
2019-06-08T07:24:37.267Z,3.40
2019-06-08T07:27:14.503Z,2.30
2019-06-08T07:29:56.282Z,2.60
2019-06-08T07:32:30.582Z,2.90
2019-06-08T07:35:08.935Z,2.50
2019-06-08T07:37:41.220Z,2.70
2019-06-08T07:40:14.308Z,2.70
2019-06-08T07:42:49.731Z,3.00
2019-06-08T07:45:25.143Z,2.30
2019-06-08T07:48:00.599Z,3.33
2019-06-08T07:50:35.989Z,2.10
2019-06-08T07:53:10.464Z,3.00
2019-06-08T07:55:45.379Z,2.08
2019-06-08T07:58:21.490Z,2.25
2019-06-08T08:00:59.745Z,2.08
2019-06-08T08:03:36.920Z,2.17
2019-06-08T08:06:09.276Z,2.10
2019-06-08T08:08:41.839Z,2.12
2019-06-08T08:11:14.058Z,2.30
2019-06-08T08:13:46.583Z,2.33
2019-06-08T08:16:18.878Z,2.10
2019-06-08T08:18:51.337Z,1.90
2019-06-08T08:21:26.366Z,1.92
2019-06-08T08:26:34.044Z,2.17
2019-06-08T08:29:05.138Z,2.25
2019-06-08T08:31:39.458Z,2.33
2019-06-08T08:34:13.049Z,1.77
2019-06-08T08:36:48.158Z,2.42
2019-06-08T08:39:21.911Z,2.60
2019-06-08T08:44:28.338Z,1.80
2019-06-08T08:47:02.814Z,1.90
2019-06-08T08:49:38.057Z,2.20
2019-06-08T08:52:11.649Z,1.87
2019-06-08T08:57:18.237Z,2.40
2019-06-08T08:59:53.594Z,2.00
2019-06-08T09:05:01.304Z,1.90
2019-06-08T09:07:31.435Z,1.90
2019-06-08T09:10:08.554Z,2.22
2019-06-08T09:12:42.696Z,1.87
2019-06-08T09:17:48.278Z,1.87
2019-06-08T09:20:20.553Z,2.00
2019-06-08T09:23:01.919Z,2.05
2019-06-08T09:25:28.663Z,1.98
2019-06-08T09:28:04.409Z,1.75
2019-06-08T09:30:34.884Z,2.62
2019-06-08T09:33:08.151Z,1.87
2019-06-08T09:35:40.575Z,2.00
2019-06-08T09:38:14.254Z,2.25
2019-06-08T09:40:48.891Z,2.45
2019-06-08T09:43:21.014Z,2.00
2019-06-08T09:45:54.181Z,2.33
2019-06-08T09:48:28.824Z,2.50
2019-06-08T09:53:41.072Z,1.90
2019-06-08T09:56:12.416Z,2.77
2019-06-08T09:58:51.144Z,2.40
2019-06-08T10:01:21.827Z,2.02
2019-06-08T10:03:54.351Z,2.30
2019-06-08T10:06:27.815Z,2.00
2019-06-08T10:09:00.744Z,2.00
2019-06-08T10:11:34.690Z,2.80
2019-06-08T10:14:12.385Z,2.05
2019-06-08T10:16:47.667Z,2.30
2019-06-08T10:19:19.036Z,2.25
2019-06-08T10:21:51.462Z,2.22
2019-06-08T10:24:23.517Z,2.10
2019-06-08T10:26:59.279Z,1.98
2019-06-08T10:29:31.491Z,2.77
2019-06-08T10:32:06.398Z,1.87
2019-06-08T10:34:39.396Z,2.87
2019-06-08T10:37:13.278Z,2.60
2019-06-08T10:39:47.727Z,2.00
2019-06-08T10:42:22.688Z,2.60
2019-06-08T10:45:02.324Z,2.95
2019-06-08T10:47:30.341Z,2.10
2019-06-08T10:50:08.972Z,3.85
2019-06-08T10:52:43.988Z,2.52
2019-06-08T10:55:17.991Z,2.45
2019-06-08T10:57:52.115Z,2.80
2019-06-08T11:00:28.210Z,2.30
2019-06-08T11:03:02.140Z,2.47
2019-06-08T11:05:34.115Z,2.45
2019-06-08T11:08:12.911Z,2.52
2019-06-08T11:10:41.605Z,2.25
2019-06-08T11:13:15.046Z,2.30
2019-06-08T11:15:48.905Z,2.60
2019-06-08T11:18:21.750Z,2.40
2019-06-08T11:20:57.999Z,2.30
2019-06-08T11:23:31.194Z,2.55
2019-06-08T11:26:11.137Z,2.85
2019-06-08T11:28:38.278Z,2.35
2019-06-08T11:33:45.809Z,2.25
2019-06-08T11:36:19.315Z,2.27
2019-06-08T11:38:53.359Z,1.80
2019-06-08T11:41:27.702Z,2.33
2019-06-08T11:44:02.082Z,2.25
2019-06-08T11:46:38.370Z,2.30
2019-06-08T11:49:13.475Z,2.60
2019-06-08T11:51:47.687Z,2.25
2019-06-08T11:54:32.310Z,2.22
2019-06-08T11:56:57.380Z,2.92
2019-06-08T11:59:29.729Z,2.47
2019-06-08T12:02:03.439Z,2.40
2019-06-08T12:04:38.270Z,3.10
2019-06-08T12:07:12.250Z,2.17
2019-06-08T12:09:44.354Z,2.10
2019-06-08T12:12:18.646Z,2.33
2019-06-08T12:14:50.844Z,2.22
2019-06-08T12:17:23.112Z,2.13
2019-06-08T12:19:57.608Z,2.47
2019-06-08T12:22:29.104Z,2.20
2019-06-08T12:25:01.775Z,2.33
2019-06-08T12:27:37.283Z,2.27
2019-06-08T12:30:17.409Z,2.27
2019-06-08T12:32:43.295Z,2.00
2019-06-08T12:35:18.097Z,1.50
2019-06-08T12:37:51.525Z,2.50
2019-06-08T12:40:28.082Z,2.35
2019-06-08T12:42:59.760Z,2.85
2019-06-08T12:45:32.122Z,2.20
2019-06-08T12:48:04.603Z,2.08
2019-06-08T12:50:38.659Z,2.60
2019-06-08T12:53:15.940Z,2.05
2019-06-08T12:55:47.604Z,1.90
2019-06-08T12:58:21.946Z,1.90
2019-06-08T13:00:53.896Z,1.92
2019-06-08T13:03:29.892Z,2.43
2019-06-08T13:06:02.629Z,2.10
2019-06-08T13:08:34.916Z,1.90
2019-06-08T13:11:09.766Z,2.22
2019-06-08T13:13:43.127Z,2.50
2019-06-08T13:16:19.697Z,2.55
2019-06-08T13:18:49.752Z,2.55
2019-06-08T13:21:34.061Z,2.00
2019-06-08T13:23:58.197Z,2.52
2019-06-08T13:29:04.168Z,2.22
2019-06-08T13:34:14.176Z,1.85
2019-06-08T13:36:48.401Z,2.25
2019-06-08T13:39:22.726Z,2.00
2019-06-08T13:41:54.146Z,2.27
2019-06-08T13:44:27.810Z,2.50
2019-06-08T13:47:00.439Z,2.10
2019-06-08T13:49:32.625Z,2.10
2019-06-08T13:52:07.900Z,1.90
2019-06-08T13:54:41.117Z,2.02
2019-06-08T13:59:45.436Z,2.17
2019-06-08T14:02:21.016Z,2.20
2019-06-08T14:04:51.772Z,2.67
2019-06-08T14:07:34.427Z,2.50
2019-06-08T14:10:04.501Z,3.50
2019-06-08T14:12:38.393Z,3.00
2019-06-08T14:15:11.104Z,3.50
2019-06-08T14:17:43.671Z,3.47
2019-06-08T14:20:22.996Z,3.58
2019-06-08T14:22:55.599Z,3.87
2019-06-08T14:25:46.588Z,3.92
2019-06-08T14:28:06.856Z,3.12
2019-06-08T14:30:39.232Z,3.47
2019-06-08T14:33:11.420Z,3.70
2019-06-08T14:35:43.569Z,3.65
2019-06-08T14:38:19.303Z,3.52
2019-06-08T14:40:49.631Z,2.42
2019-06-08T14:43:23.117Z,3.70
2019-06-08T14:45:57.837Z,3.25
2019-06-08T14:48:33.572Z,3.10
2019-06-08T14:51:03.944Z,2.98
2019-06-08T14:53:38.563Z,5.00
2019-06-08T14:56:10.455Z,4.40
2019-06-08T14:58:43.643Z,3.55
2019-06-08T15:01:20.018Z,3.87
2019-06-08T15:03:53.036Z,3.35
2019-06-08T15:06:31.058Z,2.77
2019-06-08T15:08:59.315Z,3.30
2019-06-08T15:11:34.882Z,3.33
2019-06-08T15:14:05.583Z,3.22
2019-06-08T15:16:38.626Z,3.10
2019-06-08T15:19:12.090Z,4.00
2019-06-08T15:21:45.061Z,3.92
2019-06-08T15:24:18.663Z,3.08
2019-06-08T15:26:50.769Z,2.50
2019-06-08T15:29:24.897Z,3.27
2019-06-08T15:31:58.369Z,2.85
2019-06-08T15:34:33.213Z,2.90
2019-06-08T15:37:05.715Z,3.00
2019-06-08T15:39:38.892Z,2.70
2019-06-08T15:42:11.309Z,2.70
2019-06-08T15:44:43.990Z,2.80
2019-06-08T15:47:17.878Z,2.77
2019-06-08T15:52:24.437Z,2.67
2019-06-08T15:55:01.371Z,2.98
2019-06-08T15:57:37.992Z,2.60
2019-06-08T16:00:12.096Z,2.67
2019-06-08T16:02:45.516Z,2.83
2019-06-08T16:05:18.161Z,3.50
2019-06-08T16:07:51.450Z,3.25
2019-06-08T16:10:23.974Z,3.53
2019-06-08T16:12:56.303Z,3.10
2019-06-08T16:15:28.852Z,3.80
2019-06-08T16:18:01.457Z,3.30
2019-06-08T16:20:33.680Z,3.37
2019-06-08T16:25:39.120Z,3.00
2019-06-08T16:28:11.279Z,3.15
2019-06-08T16:30:44.040Z,3.05
2019-06-08T16:33:18.392Z,3.22
2019-06-08T16:35:50.618Z,2.90
2019-06-08T16:38:24.123Z,2.92
2019-06-08T16:40:58.767Z,2.52
2019-06-08T16:43:31.105Z,2.80
2019-06-08T16:46:03.533Z,3.80
2019-06-08T16:48:36.315Z,2.72
2019-06-08T16:51:08.570Z,3.10
2019-06-08T16:53:42.456Z,3.00
2019-06-08T16:56:14.538Z,3.05
2019-06-08T16:58:46.773Z,3.10
2019-06-08T17:01:20.206Z,3.37
2019-06-08T17:03:52.461Z,3.80
2019-06-08T17:06:24.853Z,3.55
2019-06-08T17:08:56.950Z,3.10
2019-06-08T17:11:29.602Z,3.70
2019-06-08T17:14:02.073Z,3.08
2019-06-08T17:16:36.349Z,3.20
2019-06-08T17:19:09.489Z,3.47
2019-06-08T17:21:41.811Z,3.62
2019-06-08T17:24:14.491Z,2.87
2019-06-08T17:26:47.868Z,3.45
2019-06-08T17:29:20.248Z,2.65
2019-06-08T17:31:52.469Z,2.80
2019-06-08T17:34:24.658Z,2.70
2019-06-08T17:36:57.427Z,2.52
2019-06-08T17:39:30.071Z,2.50
2019-06-08T17:42:02.312Z,2.10
2019-06-08T17:44:34.900Z,2.42
2019-06-08T17:47:08.139Z,2.52
2019-06-08T17:49:40.752Z,2.90
2019-06-08T17:52:13.200Z,2.83
2019-06-08T17:54:45.515Z,2.80
2019-06-08T17:57:18.789Z,2.40
2019-06-08T17:59:50.960Z,3.00
2019-06-08T18:02:28.196Z,3.47
2019-06-08T18:04:58.045Z,2.75
2019-06-08T18:07:30.802Z,3.50
2019-06-08T18:10:07.217Z,3.08
2019-06-08T18:12:42.857Z,2.75
2019-06-08T18:15:17.061Z,2.30
2019-06-08T18:17:49.136Z,2.45
2019-06-08T18:20:22.571Z,3.70
2019-06-08T18:22:57.809Z,2.83
2019-06-08T18:25:29.496Z,3.50
2019-06-08T18:28:10.159Z,2.47
2019-06-08T18:30:40.432Z,2.72
2019-06-08T18:35:46.084Z,2.90
2019-06-08T18:38:18.969Z,3.08
2019-06-08T18:40:51.638Z,3.17
2019-06-08T18:43:25.055Z,3.90
2019-06-08T18:45:57.755Z,3.05
2019-06-08T18:48:30.220Z,2.95
2019-06-08T18:51:04.287Z,3.15
2019-06-08T18:53:54.111Z,2.98
2019-06-08T18:58:42.263Z,2.98
2019-06-08T19:01:17.915Z,4.20
2019-06-08T19:03:52.465Z,3.50
2019-06-08T19:06:24.623Z,3.67
2019-06-08T19:08:58.559Z,2.95
2019-06-08T19:11:30.514Z,2.80
2019-06-08T19:14:05.215Z,2.75
2019-06-08T19:19:13.650Z,3.83
2019-06-08T19:21:50.166Z,3.65
2019-06-08T19:24:22.361Z,3.27
2019-06-08T19:26:54.447Z,5.03
2019-06-08T19:29:28.110Z,5.70
2019-06-08T19:32:00.957Z,5.90
2019-06-08T19:34:33.656Z,6.10
2019-06-08T19:37:10.912Z,6.47
2019-06-08T19:39:45.868Z,5.37
2019-06-08T19:44:59.267Z,4.90
2019-06-08T19:47:27.794Z,10.85
2019-06-08T19:50:00.735Z,9.60
2019-06-08T19:52:34.877Z,9.50
2019-06-08T19:55:08.499Z,8.80
2019-06-08T19:57:41.359Z,5.97
2019-06-08T20:00:14.876Z,6.28
2019-06-08T20:02:53.208Z,4.78
2019-06-08T20:05:31.220Z,4.70
2019-06-08T20:08:03.808Z,4.15
2019-06-08T20:10:36.238Z,4.20
2019-06-08T20:13:08.950Z,4.40
2019-06-08T20:15:47.306Z,3.77
2019-06-08T20:18:17.221Z,3.55
2019-06-08T20:20:52.717Z,4.50
2019-06-08T20:23:30.836Z,5.50
2019-06-08T20:26:09.651Z,6.25
2019-06-08T20:28:43.444Z,7.30
2019-06-08T20:33:52.160Z,6.67
2019-06-08T20:36:25.249Z,6.80
2019-06-08T20:38:58.681Z,6.00
2019-06-08T20:41:32.128Z,5.45
2019-06-08T20:44:04.246Z,5.57
2019-06-08T20:46:38.313Z,5.92
2019-06-08T20:49:18.299Z,5.78
2019-06-08T20:51:57.083Z,5.95
2019-06-08T20:54:32.542Z,5.72
2019-06-08T20:57:08.992Z,6.45
2019-06-08T20:59:41.531Z,5.95
2019-06-08T21:02:17.822Z,5.65
2019-06-08T21:04:54.072Z,6.50
2019-06-08T21:07:28.108Z,6.30
2019-06-08T21:10:01.016Z,5.92
2019-06-08T21:12:33.316Z,6.67
2019-06-08T21:15:07.201Z,6.60
2019-06-08T21:17:40.150Z,6.90
2019-06-08T21:20:12.446Z,6.45
2019-06-08T21:22:44.970Z,5.92
2019-06-08T21:25:18.379Z,5.30
2019-06-08T21:27:51.450Z,5.80
2019-06-08T21:30:24.981Z,6.05
2019-06-08T21:33:00.675Z,6.17
2019-06-08T21:35:31.185Z,6.60
2019-06-08T21:38:19.127Z,6.87
2019-06-08T21:40:38.070Z,7.08
2019-06-08T21:43:10.227Z,6.08
2019-06-08T21:45:42.352Z,5.95
2019-06-08T21:48:14.748Z,6.25
2019-06-08T21:50:48.974Z,5.37
2019-06-08T21:55:56.246Z,4.90
2019-06-08T21:58:29.807Z,3.87
2019-06-08T22:01:07.201Z,4.75
2019-06-08T22:03:38.753Z,5.17
2019-06-08T22:06:11.111Z,5.30
2019-06-08T22:08:44.153Z,4.67
2019-06-08T22:11:18.126Z,3.98
2019-06-08T22:13:52.655Z,3.22
2019-06-08T22:16:27.296Z,3.40
2019-06-08T22:19:00.962Z,3.98
2019-06-08T22:21:33.362Z,4.08
2019-06-08T22:24:07.908Z,4.30
2019-06-08T22:29:13.588Z,5.53
2019-06-08T22:31:47.439Z,5.23
2019-06-08T22:34:19.678Z,7.08
2019-06-08T22:36:53.084Z,5.62
2019-06-08T22:39:28.173Z,5.58
2019-06-08T22:42:03.853Z,7.08
2019-06-08T22:44:37.507Z,7.90
2019-06-08T22:47:10.004Z,10.10
2019-06-08T22:49:42.558Z,9.75
2019-06-08T22:52:14.904Z,10.68
2019-06-08T22:54:47.710Z,11.80
2019-06-08T22:57:20.030Z,10.35
2019-06-08T22:59:54.253Z,10.48
2019-06-08T23:02:27.839Z,10.85
2019-06-08T23:05:02.593Z,9.57
2019-06-08T23:07:37.243Z,10.28
2019-06-08T23:10:10.496Z,10.30
2019-06-08T23:12:42.772Z,7.45
2019-06-08T23:15:15.250Z,7.42
2019-06-08T23:17:48.128Z,5.80
2019-06-08T23:20:20.599Z,6.72
2019-06-08T23:22:52.997Z,8.00
2019-06-08T23:25:27.947Z,8.65
2019-06-08T23:28:03.174Z,8.68
2019-06-08T23:30:35.224Z,7.42
2019-06-08T23:33:11.496Z,9.33
2019-06-08T23:36:20.722Z,9.60
2019-06-08T23:40:50.601Z,11.40
2019-06-08T23:43:22.798Z,10.93
2019-06-08T23:45:55.071Z,9.20
2019-06-08T23:48:27.889Z,8.58
2019-06-08T23:51:00.535Z,9.53
2019-06-08T23:53:32.920Z,8.95
2019-06-08T23:56:08.448Z,8.73
2019-06-08T23:58:40.285Z,8.40
